sensor_id;sensor_type;location;lat;lon;timestamp;pressure;altitude;pressure_sealevel;temperature;humidity
10646;BME280;5371;49.782;9.932;2023-03-22T00:00:46;99427.66;;;8.43;100.00
10646;BME280;5371;49.782;9.932;2023-03-22T00:03:14;99427.03;;;8.38;100.00
10646;BME280;5371;49.782;9.932;2023-03-22T00:05:41;99418.31;;;8.39;100.00
10646;BME280;5371;49.782;9.932;2023-03-22T00:08:09;99422.22;;;8.31;100.00
10646;BME280;5371;49.782;9.932;2023-03-22T00:10:39;99429.84;;;8.18;100.00
10646;BME280;5371;49.782;9.932;2023-03-22T00:13:08;99429.31;;;8.11;100.00
10646;BME280;5371;49.782;9.932;2023-03-22T00:15:35;99426.63;;;8.13;100.00
10646;BME280;5371;49.782;9.932;2023-03-22T00:18:02;99426.81;;;8.10;100.00
10646;BME280;5371;49.782;9.932;2023-03-22T00:20:31;99425.38;;;8.20;100.00
10646;BME280;5371;49.782;9.932;2023-03-22T00:23:01;99410.38;;;8.25;100.00
10646;BME280;5371;49.782;9.932;2023-03-22T00:25:30;99409.47;;;8.26;100.00
10646;BME280;5371;49.782;9.932;2023-03-22T00:27:57;99413.97;;;8.22;100.00
10646;BME280;5371;49.782;9.932;2023-03-22T00:30:24;99425.22;;;8.07;100.00
10646;BME280;5371;49.782;9.932;2023-03-22T00:32:51;99416.91;;;8.01;100.00
10646;BME280;5371;49.782;9.932;2023-03-22T00:35:18;99421.41;;;7.97;100.00
10646;BME280;5371;49.782;9.932;2023-03-22T00:37:46;99413.88;;;8.08;100.00
10646;BME280;5371;49.782;9.932;2023-03-22T00:40:16;99420.00;;;8.07;100.00
10646;BME280;5371;49.782;9.932;2023-03-22T00:42:44;99413.81;;;8.10;100.00
10646;BME280;5371;49.782;9.932;2023-03-22T00:45:12;99414.06;;;8.21;100.00
10646;BME280;5371;49.782;9.932;2023-03-22T00:47:39;99409.16;;;8.32;100.00
10646;BME280;5371;49.782;9.932;2023-03-22T00:50:07;99404.06;;;8.29;100.00
10646;BME280;5371;49.782;9.932;2023-03-22T00:52:34;99400.72;;;8.27;100.00
10646;BME280;5371;49.782;9.932;2023-03-22T00:55:01;99401.22;;;8.18;100.00
10646;BME280;5371;49.782;9.932;2023-03-22T00:57:28;99394.06;;;8.06;100.00
10646;BME280;5371;49.782;9.932;2023-03-22T00:59:57;99397.50;;;8.06;100.00
10646;BME280;5371;49.782;9.932;2023-03-22T01:02:31;99399.34;;;8.20;100.00
10646;BME280;5371;49.782;9.932;2023-03-22T01:04:58;99391.53;;;8.20;100.00
10646;BME280;5371;49.782;9.932;2023-03-22T01:07:25;99401.94;;;8.04;100.00
10646;BME280;5371;49.782;9.932;2023-03-22T01:09:53;99383.72;;;8.20;100.00
10646;BME280;5371;49.782;9.932;2023-03-22T01:12:20;99387.88;;;8.24;100.00
10646;BME280;5371;49.782;9.932;2023-03-22T01:14:47;99384.25;;;8.26;100.00
10646;BME280;5371;49.782;9.932;2023-03-22T01:17:15;99378.97;;;8.28;100.00
10646;BME280;5371;49.782;9.932;2023-03-22T01:19:43;99380.84;;;7.93;100.00
10646;BME280;5371;49.782;9.932;2023-03-22T01:22:10;99380.31;;;7.86;100.00
10646;BME280;5371;49.782;9.932;2023-03-22T01:24:38;99370.75;;;7.87;100.00
10646;BME280;5371;49.782;9.932;2023-03-22T01:27:04;99374.50;;;7.99;100.00
10646;BME280;5371;49.782;9.932;2023-03-22T01:29:31;99363.25;;;8.14;100.00
10646;BME280;5371;49.782;9.932;2023-03-22T01:32:00;99364.78;;;8.18;100.00
10646;BME280;5371;49.782;9.932;2023-03-22T01:34:29;99365.69;;;8.17;100.00
10646;BME280;5371;49.782;9.932;2023-03-22T01:36:56;99363.47;;;8.42;100.00
10646;BME280;5371;49.782;9.932;2023-03-22T01:39:23;99359.16;;;8.25;100.00
10646;BME280;5371;49.782;9.932;2023-03-22T01:41:55;99354.72;;;8.27;100.00
10646;BME280;5371;49.782;9.932;2023-03-22T01:44:22;99355.69;;;8.25;100.00
10646;BME280;5371;49.782;9.932;2023-03-22T01:46:52;99347.63;;;8.14;100.00
10646;BME280;5371;49.782;9.932;2023-03-22T01:49:22;99348.31;;;8.17;100.00
10646;BME280;5371;49.782;9.932;2023-03-22T01:51:55;99345.66;;;8.02;100.00
10646;BME280;5371;49.782;9.932;2023-03-22T01:54:38;99343.69;;;8.07;100.00
10646;BME280;5371;49.782;9.932;2023-03-22T01:57:22;99336.53;;;8.10;100.00
10646;BME280;5371;49.782;9.932;2023-03-22T01:59:51;99338.56;;;8.05;100.00
10646;BME280;5371;49.782;9.932;2023-03-22T02:02:38;59859.25;;;-142.70;100.00
10646;BME280;5371;49.782;9.932;2023-03-22T02:05:16;59859.25;;;-142.70;100.00
10646;BME280;5371;49.782;9.932;2023-03-22T02:07:45;59859.25;;;-142.70;100.00
10646;BME280;5371;49.782;9.932;2023-03-22T02:10:14;59859.25;;;-142.70;100.00
10646;BME280;5371;49.782;9.932;2023-03-22T02:13:04;59859.25;;;-142.70;100.00
10646;BME280;5371;49.782;9.932;2023-03-22T02:15:59;59859.25;;;-142.70;100.00
10646;BME280;5371;49.782;9.932;2023-03-22T02:19:20;59859.25;;;-142.70;100.00
10646;BME280;5371;49.782;9.932;2023-03-22T02:22:22;59859.25;;;-142.70;100.00
10646;BME280;5371;49.782;9.932;2023-03-22T02:25:26;59859.25;;;-142.70;100.00
10646;BME280;5371;49.782;9.932;2023-03-22T02:28:15;59859.25;;;-142.70;100.00
10646;BME280;5371;49.782;9.932;2023-03-22T02:31:06;59859.25;;;-142.70;100.00
10646;BME280;5371;49.782;9.932;2023-03-22T02:39:33;59859.25;;;-142.70;100.00
10646;BME280;5371;49.782;9.932;2023-03-22T02:42:15;59859.25;;;-142.70;100.00
10646;BME280;5371;49.782;9.932;2023-03-22T02:44:56;59859.25;;;-142.70;100.00
10646;BME280;5371;49.782;9.932;2023-03-22T02:47:34;59859.25;;;-142.70;100.00
10646;BME280;5371;49.782;9.932;2023-03-22T02:50:08;59859.25;;;-142.70;100.00
10646;BME280;5371;49.782;9.932;2023-03-22T02:52:39;59859.25;;;-142.70;100.00
10646;BME280;5371;49.782;9.932;2023-03-22T02:55:14;59859.25;;;-142.70;100.00
10646;BME280;5371;49.782;9.932;2023-03-22T02:57:46;59859.25;;;-142.70;100.00
10646;BME280;5371;49.782;9.932;2023-03-22T03:00:17;59859.25;;;-142.70;100.00
10646;BME280;5371;49.782;9.932;2023-03-22T03:02:48;59859.25;;;-142.70;100.00
10646;BME280;5371;49.782;9.932;2023-03-22T03:05:18;59859.25;;;-142.70;100.00
10646;BME280;5371;49.782;9.932;2023-03-22T03:07:49;59859.25;;;-142.70;100.00
10646;BME280;5371;49.782;9.932;2023-03-22T03:10:21;59859.25;;;-142.70;100.00
10646;BME280;5371;49.782;9.932;2023-03-22T03:12:49;59859.25;;;-142.70;100.00
10646;BME280;5371;49.782;9.932;2023-03-22T03:15:18;59859.25;;;-142.70;100.00
10646;BME280;5371;49.782;9.932;2023-03-22T03:18:00;59859.25;;;-142.70;100.00
10646;BME280;5371;49.782;9.932;2023-03-22T03:20:37;59859.25;;;-142.70;100.00
10646;BME280;5371;49.782;9.932;2023-03-22T03:23:15;59859.25;;;-142.70;100.00
10646;BME280;5371;49.782;9.932;2023-03-22T03:25:54;59859.25;;;-142.70;100.00
10646;BME280;5371;49.782;9.932;2023-03-22T03:28:29;59859.25;;;-142.70;100.00
10646;BME280;5371;49.782;9.932;2023-03-22T03:31:09;59859.25;;;-142.70;100.00
10646;BME280;5371;49.782;9.932;2023-03-22T03:33:44;59859.25;;;-142.70;100.00
10646;BME280;5371;49.782;9.932;2023-03-22T03:36:15;59859.25;;;-142.70;100.00
10646;BME280;5371;49.782;9.932;2023-03-22T03:38:46;59859.25;;;-142.70;100.00
10646;BME280;5371;49.782;9.932;2023-03-22T03:41:20;59859.25;;;-142.70;100.00
10646;BME280;5371;49.782;9.932;2023-03-22T03:43:49;59859.25;;;-142.70;100.00
10646;BME280;5371;49.782;9.932;2023-03-22T03:46:19;59859.25;;;-142.70;100.00
10646;BME280;5371;49.782;9.932;2023-03-22T03:48:48;59859.25;;;-142.70;100.00
10646;BME280;5371;49.782;9.932;2023-03-22T03:51:16;59859.25;;;-142.70;100.00
10646;BME280;5371;49.782;9.932;2023-03-22T03:53:43;59859.25;;;-142.70;100.00
10646;BME280;5371;49.782;9.932;2023-03-22T03:56:11;59859.25;;;-142.70;100.00
10646;BME280;5371;49.782;9.932;2023-03-22T03:58:44;59859.25;;;-142.70;100.00
10646;BME280;5371;49.782;9.932;2023-03-22T04:01:11;59859.25;;;-142.70;100.00
10646;BME280;5371;49.782;9.932;2023-03-22T04:03:38;59859.25;;;-142.70;100.00
10646;BME280;5371;49.782;9.932;2023-03-22T04:06:11;59859.25;;;-142.70;100.00
10646;BME280;5371;49.782;9.932;2023-03-22T04:08:43;59859.25;;;-142.70;100.00
10646;BME280;5371;49.782;9.932;2023-03-22T04:11:12;59859.25;;;-142.70;100.00
10646;BME280;5371;49.782;9.932;2023-03-22T04:13:41;59859.25;;;-142.70;100.00
10646;BME280;5371;49.782;9.932;2023-03-22T04:16:14;59859.25;;;-142.70;100.00
10646;BME280;5371;49.782;9.932;2023-03-22T04:18:40;59859.25;;;-142.70;100.00
10646;BME280;5371;49.782;9.932;2023-03-22T04:21:08;59859.25;;;-142.70;100.00
10646;BME280;5371;49.782;9.932;2023-03-22T04:23:46;59859.25;;;-142.70;100.00
10646;BME280;5371;49.782;9.932;2023-03-22T04:26:15;59859.25;;;-142.70;100.00
10646;BME280;5371;49.782;9.932;2023-03-22T04:28:52;59859.25;;;-142.70;100.00
10646;BME280;5371;49.782;9.932;2023-03-22T04:31:21;59859.25;;;-142.70;100.00
10646;BME280;5371;49.782;9.932;2023-03-22T04:33:54;59859.25;;;-142.70;100.00
10646;BME280;5371;49.782;9.932;2023-03-22T04:36:27;59859.25;;;-142.70;100.00
10646;BME280;5371;49.782;9.932;2023-03-22T04:39:16;59859.25;;;-142.70;100.00
10646;BME280;5371;49.782;9.932;2023-03-22T04:41:53;59859.25;;;-142.70;100.00
10646;BME280;5371;49.782;9.932;2023-03-22T04:44:20;59859.25;;;-142.70;100.00
10646;BME280;5371;49.782;9.932;2023-03-22T04:46:50;59859.25;;;-142.70;100.00
10646;BME280;5371;49.782;9.932;2023-03-22T04:49:17;59859.25;;;-142.70;100.00
10646;BME280;5371;49.782;9.932;2023-03-22T04:51:45;59859.25;;;-142.70;100.00
10646;BME280;5371;49.782;9.932;2023-03-22T04:54:28;59859.25;;;-142.70;100.00
10646;BME280;5371;49.782;9.932;2023-03-22T04:56:56;59859.25;;;-142.70;100.00
10646;BME280;5371;49.782;9.932;2023-03-22T04:59:24;59859.25;;;-142.70;100.00
10646;BME280;5371;49.782;9.932;2023-03-22T05:01:53;59859.25;;;-142.70;100.00
10646;BME280;5371;49.782;9.932;2023-03-22T05:04:24;59859.25;;;-142.70;100.00
10646;BME280;5371;49.782;9.932;2023-03-22T05:06:58;59859.25;;;-142.70;100.00
10646;BME280;5371;49.782;9.932;2023-03-22T05:09:34;59859.25;;;-142.70;100.00
10646;BME280;5371;49.782;9.932;2023-03-22T05:12:01;59859.25;;;-142.70;100.00
10646;BME280;5371;49.782;9.932;2023-03-22T05:14:54;59859.25;;;-142.70;100.00
10646;BME280;5371;49.782;9.932;2023-03-22T05:17:27;59859.25;;;-142.70;100.00
10646;BME280;5371;49.782;9.932;2023-03-22T05:19:56;59859.25;;;-142.70;100.00
10646;BME280;5371;49.782;9.932;2023-03-22T05:22:24;59859.25;;;-142.70;100.00
10646;BME280;5371;49.782;9.932;2023-03-22T05:24:53;59859.25;;;-142.70;100.00
10646;BME280;5371;49.782;9.932;2023-03-22T05:27:23;59859.25;;;-142.70;100.00
10646;BME280;5371;49.782;9.932;2023-03-22T05:29:59;59859.25;;;-142.70;100.00
10646;BME280;5371;49.782;9.932;2023-03-22T05:32:42;59859.25;;;-142.70;100.00
10646;BME280;5371;49.782;9.932;2023-03-22T05:35:11;59859.25;;;-142.70;100.00
10646;BME280;5371;49.782;9.932;2023-03-22T05:37:43;59859.25;;;-142.70;100.00
10646;BME280;5371;49.782;9.932;2023-03-22T05:40:13;59859.25;;;-142.70;100.00
10646;BME280;5371;49.782;9.932;2023-03-22T05:42:42;59859.25;;;-142.70;100.00
10646;BME280;5371;49.782;9.932;2023-03-22T05:45:22;59859.25;;;-142.70;100.00
10646;BME280;5371;49.782;9.932;2023-03-22T05:48:03;59859.25;;;-142.70;100.00
10646;BME280;5371;49.782;9.932;2023-03-22T05:50:31;59859.25;;;-142.70;100.00
10646;BME280;5371;49.782;9.932;2023-03-22T05:52:59;59859.25;;;-142.70;100.00
10646;BME280;5371;49.782;9.932;2023-03-22T05:55:43;59859.25;;;-142.70;100.00
10646;BME280;5371;49.782;9.932;2023-03-22T05:58:11;59859.25;;;-142.70;100.00
10646;BME280;5371;49.782;9.932;2023-03-22T06:00:43;59859.25;;;-142.70;100.00
10646;BME280;5371;49.782;9.932;2023-03-22T06:03:32;59859.25;;;-142.70;100.00
10646;BME280;5371;49.782;9.932;2023-03-22T06:06:10;59859.25;;;-142.70;100.00
10646;BME280;5371;49.782;9.932;2023-03-22T06:08:50;59859.25;;;-142.70;100.00
10646;BME280;5371;49.782;9.932;2023-03-22T06:11:17;59859.25;;;-142.70;100.00
10646;BME280;5371;49.782;9.932;2023-03-22T06:13:44;59859.25;;;-142.70;100.00
10646;BME280;5371;49.782;9.932;2023-03-22T06:16:12;59859.25;;;-142.70;100.00
10646;BME280;5371;49.782;9.932;2023-03-22T06:18:42;59859.25;;;-142.70;100.00
10646;BME280;5371;49.782;9.932;2023-03-22T06:21:11;59859.25;;;-142.70;100.00
10646;BME280;5371;49.782;9.932;2023-03-22T06:23:38;59859.25;;;-142.70;100.00
10646;BME280;5371;49.782;9.932;2023-03-22T06:26:07;59859.25;;;-142.70;100.00
10646;BME280;5371;49.782;9.932;2023-03-22T06:28:36;59859.25;;;-142.70;100.00
10646;BME280;5371;49.782;9.932;2023-03-22T06:31:07;59859.25;;;-142.70;100.00
10646;BME280;5371;49.782;9.932;2023-03-22T06:33:48;59859.25;;;-142.70;100.00
10646;BME280;5371;49.782;9.932;2023-03-22T06:36:29;59859.25;;;-142.70;100.00
10646;BME280;5371;49.782;9.932;2023-03-22T06:39:05;59859.25;;;-142.70;100.00
10646;BME280;5371;49.782;9.932;2023-03-22T06:41:32;59859.25;;;-142.70;100.00
10646;BME280;5371;49.782;9.932;2023-03-22T06:44:00;59859.25;;;-142.70;100.00
10646;BME280;5371;49.782;9.932;2023-03-22T06:46:46;99338.56;;;8.05;100.00
10646;BME280;5371;49.782;9.932;2023-03-22T06:49:29;99289.47;;;10.73;100.00
10646;BME280;5371;49.782;9.932;2023-03-22T06:51:58;99291.50;;;10.82;100.00
10646;BME280;5371;49.782;9.932;2023-03-22T06:54:25;99287.44;;;10.91;100.00
10646;BME280;5371;49.782;9.932;2023-03-22T06:56:53;99298.94;;;10.88;100.00
10646;BME280;5371;49.782;9.932;2023-03-22T06:59:20;99289.84;;;11.07;100.00
10646;BME280;5371;49.782;9.932;2023-03-22T07:01:47;99294.56;;;11.14;100.00
10646;BME280;5371;49.782;9.932;2023-03-22T07:04:15;99294.38;;;11.30;100.00
10646;BME280;5371;49.782;9.932;2023-03-22T07:06:46;99289.25;;;11.16;100.00
10646;BME280;5371;49.782;9.932;2023-03-22T07:09:13;99299.72;;;11.41;100.00
10646;BME280;5371;49.782;9.932;2023-03-22T07:11:40;99291.25;;;11.76;100.00
10646;BME280;5371;49.782;9.932;2023-03-22T07:14:08;99291.63;;;13.71;100.00
10646;BME280;5371;49.782;9.932;2023-03-22T07:16:58;99297.56;;;13.84;100.00
10646;BME280;5371;49.782;9.932;2023-03-22T07:19:28;99292.13;;;15.98;82.70
10646;BME280;5371;49.782;9.932;2023-03-22T07:21:58;59859.25;;;-142.70;100.00
10646;BME280;5371;49.782;9.932;2023-03-22T07:24:26;99286.91;;;17.72;70.23
10646;BME280;5371;49.782;9.932;2023-03-22T07:26:53;99289.50;;;20.44;54.04
10646;BME280;5371;49.782;9.932;2023-03-22T07:29:23;99276.41;;;22.73;45.63
10646;BME280;5371;49.782;9.932;2023-03-22T07:31:50;59859.25;;;-142.70;100.00
10646;BME280;5371;49.782;9.932;2023-03-22T07:34:23;59859.25;;;-142.70;100.00
10646;BME280;5371;49.782;9.932;2023-03-22T07:37:02;59859.25;;;-142.70;100.00
10646;BME280;5371;49.782;9.932;2023-03-22T07:39:30;59859.25;;;-142.70;100.00
10646;BME280;5371;49.782;9.932;2023-03-22T07:41:57;59859.25;;;-142.70;100.00
10646;BME280;5371;49.782;9.932;2023-03-22T07:44:25;59859.25;;;-142.70;100.00
10646;BME280;5371;49.782;9.932;2023-03-22T07:47:07;59859.25;;;-142.70;100.00
10646;BME280;5371;49.782;9.932;2023-03-22T07:50:10;59859.25;;;-142.70;100.00
10646;BME280;5371;49.782;9.932;2023-03-22T07:52:40;59859.25;;;-142.70;100.00
10646;BME280;5371;49.782;9.932;2023-03-22T07:55:08;59859.25;;;-142.70;100.00
10646;BME280;5371;49.782;9.932;2023-03-22T07:57:36;59859.25;;;-142.70;100.00
10646;BME280;5371;49.782;9.932;2023-03-22T08:00:05;59859.25;;;-142.70;100.00
10646;BME280;5371;49.782;9.932;2023-03-22T08:02:43;59859.25;;;-142.70;100.00
10646;BME280;5371;49.782;9.932;2023-03-22T08:05:19;59859.25;;;-142.70;100.00
10646;BME280;5371;49.782;9.932;2023-03-22T08:07:55;59859.25;;;-142.70;100.00
10646;BME280;5371;49.782;9.932;2023-03-22T08:10:22;59859.25;;;-142.70;100.00
10646;BME280;5371;49.782;9.932;2023-03-22T08:12:49;59859.25;;;-142.70;100.00
10646;BME280;5371;49.782;9.932;2023-03-22T08:15:22;59859.25;;;-142.70;100.00
10646;BME280;5371;49.782;9.932;2023-03-22T08:17:49;59859.25;;;-142.70;100.00
10646;BME280;5371;49.782;9.932;2023-03-22T08:20:26;59859.25;;;-142.70;100.00
10646;BME280;5371;49.782;9.932;2023-03-22T08:22:59;59859.25;;;-142.70;100.00
10646;BME280;5371;49.782;9.932;2023-03-22T08:25:26;59859.25;;;-142.70;100.00
10646;BME280;5371;49.782;9.932;2023-03-22T08:28:02;59859.25;;;-142.70;100.00
10646;BME280;5371;49.782;9.932;2023-03-22T08:30:29;59859.25;;;-142.70;100.00
10646;BME280;5371;49.782;9.932;2023-03-22T08:32:56;59859.25;;;-142.70;100.00
10646;BME280;5371;49.782;9.932;2023-03-22T08:35:23;59859.25;;;-142.70;100.00
10646;BME280;5371;49.782;9.932;2023-03-22T08:37:52;59859.25;;;-142.70;100.00
10646;BME280;5371;49.782;9.932;2023-03-22T08:40:24;59859.25;;;-142.70;100.00
10646;BME280;5371;49.782;9.932;2023-03-22T08:42:55;59859.25;;;-142.70;100.00
10646;BME280;5371;49.782;9.932;2023-03-22T08:45:23;59859.25;;;-142.70;100.00
10646;BME280;5371;49.782;9.932;2023-03-22T08:47:57;59859.25;;;-142.70;100.00
10646;BME280;5371;49.782;9.932;2023-03-22T08:50:25;59859.25;;;-142.70;100.00
10646;BME280;5371;49.782;9.932;2023-03-22T08:53:07;59859.25;;;-142.70;100.00
10646;BME280;5371;49.782;9.932;2023-03-22T08:55:37;59859.25;;;-142.70;100.00
10646;BME280;5371;49.782;9.932;2023-03-22T08:58:13;59859.25;;;-142.70;100.00
10646;BME280;5371;49.782;9.932;2023-03-22T09:00:50;59859.25;;;-142.70;100.00
10646;BME280;5371;49.782;9.932;2023-03-22T09:03:23;59859.25;;;-142.70;100.00
10646;BME280;5371;49.782;9.932;2023-03-22T09:05:50;59859.25;;;-142.70;100.00
10646;BME280;5371;49.782;9.932;2023-03-22T09:08:17;59859.25;;;-142.70;100.00
10646;BME280;5371;49.782;9.932;2023-03-22T09:10:48;59859.25;;;-142.70;100.00
10646;BME280;5371;49.782;9.932;2023-03-22T09:13:19;59859.25;;;-142.70;100.00
10646;BME280;5371;49.782;9.932;2023-03-22T09:15:53;99276.41;;;22.73;45.63
10646;BME280;5371;49.782;9.932;2023-03-22T09:18:24;99239.53;;;22.09;40.40
10646;BME280;5371;49.782;9.932;2023-03-22T09:20:52;99235.63;;;21.80;42.26
10646;BME280;5371;49.782;9.932;2023-03-22T09:23:24;99235.31;;;23.66;38.11
10646;BME280;5371;49.782;9.932;2023-03-22T09:25:53;99235.94;;;25.46;34.45
10646;BME280;5371;49.782;9.932;2023-03-22T09:28:23;99237.63;;;25.82;33.89
10646;BME280;5371;49.782;9.932;2023-03-22T09:30:53;99236.69;;;25.06;35.17
10646;BME280;5371;49.782;9.932;2023-03-22T09:33:21;99229.97;;;24.31;36.08
10646;BME280;5371;49.782;9.932;2023-03-22T09:35:52;99234.00;;;23.91;37.01
10646;BME280;5371;49.782;9.932;2023-03-22T09:38:19;99232.94;;;22.50;40.23
10646;BME280;5371;49.782;9.932;2023-03-22T09:40:51;99231.72;;;22.38;40.75
10646;BME280;5371;49.782;9.932;2023-03-22T09:43:28;99228.78;;;21.14;43.50
10646;BME280;5371;49.782;9.932;2023-03-22T09:45:57;99228.78;;;21.14;43.50
10646;BME280;5371;49.782;9.932;2023-03-22T09:48:27;99234.13;;;19.57;48.70
10646;BME280;5371;49.782;9.932;2023-03-22T09:50:56;99220.97;;;18.78;51.61
10646;BME280;5371;49.782;9.932;2023-03-22T09:53:26;99218.53;;;18.49;53.92
10646;BME280;5371;49.782;9.932;2023-03-22T09:55:57;99219.09;;;18.71;53.69
10646;BME280;5371;49.782;9.932;2023-03-22T09:58:32;99213.78;;;18.53;53.47
10646;BME280;5371;49.782;9.932;2023-03-22T10:01:05;99213.13;;;19.38;51.20
10646;BME280;5371;49.782;9.932;2023-03-22T10:04:02;99211.91;;;20.00;49.31
10646;BME280;5371;49.782;9.932;2023-03-22T10:06:33;99206.97;;;20.13;46.98
10646;BME280;5371;49.782;9.932;2023-03-22T10:09:05;99204.13;;;20.07;47.84
10646;BME280;5371;49.782;9.932;2023-03-22T10:11:41;99205.16;;;19.64;49.37
10646;BME280;5371;49.782;9.932;2023-03-22T10:14:22;99197.88;;;19.40;50.82
10646;BME280;5371;49.782;9.932;2023-03-22T10:16:53;99198.81;;;19.31;50.32
10646;BME280;5371;49.782;9.932;2023-03-22T10:19:23;99195.50;;;19.29;49.73
10646;BME280;5371;49.782;9.932;2023-03-22T10:21:54;99204.00;;;19.15;49.89
10646;BME280;5371;49.782;9.932;2023-03-22T10:24:26;99189.38;;;19.28;49.73
10646;BME280;5371;49.782;9.932;2023-03-22T10:26:55;99201.41;;;19.49;50.19
10646;BME280;5371;49.782;9.932;2023-03-22T10:29:28;99197.69;;;19.08;50.49
10646;BME280;5371;49.782;9.932;2023-03-22T10:32:13;99194.72;;;18.67;53.35
10646;BME280;5371;49.782;9.932;2023-03-22T10:34:41;99189.78;;;19.16;52.34
10646;BME280;5371;49.782;9.932;2023-03-22T10:37:13;99180.66;;;19.44;50.58
10646;BME280;5371;49.782;9.932;2023-03-22T10:39:43;99182.81;;;19.66;50.53
10646;BME280;5371;49.782;9.932;2023-03-22T10:42:13;99190.41;;;20.11;48.63
10646;BME280;5371;49.782;9.932;2023-03-22T10:44:46;99183.31;;;19.78;46.89
10646;BME280;5371;49.782;9.932;2023-03-22T10:47:16;99176.78;;;19.04;49.26
10646;BME280;5371;49.782;9.932;2023-03-22T10:49:47;99180.06;;;18.55;49.96
10646;BME280;5371;49.782;9.932;2023-03-22T10:52:32;99187.25;;;18.62;50.98
10646;BME280;5371;49.782;9.932;2023-03-22T10:55:02;99194.13;;;18.73;51.26
10646;BME280;5371;49.782;9.932;2023-03-22T10:57:29;99192.75;;;18.51;51.62
10646;BME280;5371;49.782;9.932;2023-03-22T10:59:57;99193.50;;;18.26;51.48
10646;BME280;5371;49.782;9.932;2023-03-22T11:02:26;99184.97;;;18.32;52.12
10646;BME280;5371;49.782;9.932;2023-03-22T11:04:56;99171.81;;;18.40;52.76
10646;BME280;5371;49.782;9.932;2023-03-22T11:07:32;99174.91;;;18.71;52.16
10646;BME280;5371;49.782;9.932;2023-03-22T11:10:11;99171.25;;;19.16;50.68
10646;BME280;5371;49.782;9.932;2023-03-22T11:12:42;99173.03;;;18.63;51.57
10646;BME280;5371;49.782;9.932;2023-03-22T11:15:22;99175.13;;;18.42;52.00
10646;BME280;5371;49.782;9.932;2023-03-22T11:17:53;99172.28;;;18.71;50.90
10646;BME280;5371;49.782;9.932;2023-03-22T11:20:20;99178.16;;;18.83;50.50
10646;BME280;5371;49.782;9.932;2023-03-22T11:22:47;99161.84;;;18.34;51.76
10646;BME280;5371;49.782;9.932;2023-03-22T11:25:20;99159.19;;;18.69;50.80
10646;BME280;5371;49.782;9.932;2023-03-22T11:27:52;99156.81;;;19.10;49.64
10646;BME280;5371;49.782;9.932;2023-03-22T11:30:24;99160.03;;;18.70;48.82
10646;BME280;5371;49.782;9.932;2023-03-22T11:33:02;99143.34;;;18.78;49.51
10646;BME280;5371;49.782;9.932;2023-03-22T11:35:36;99141.50;;;18.96;48.50
10646;BME280;5371;49.782;9.932;2023-03-22T11:38:04;99136.09;;;18.80;49.54
10646;BME280;5371;49.782;9.932;2023-03-22T11:40:34;99133.22;;;18.29;50.93
10646;BME280;5371;49.782;9.932;2023-03-22T11:43:11;99133.22;;;18.29;50.93
10646;BME280;5371;49.782;9.932;2023-03-22T11:45:43;99132.44;;;19.16;49.39
10646;BME280;5371;49.782;9.932;2023-03-22T11:48:14;99134.25;;;18.54;49.88
10646;BME280;5371;49.782;9.932;2023-03-22T11:50:43;99129.88;;;18.63;50.22
10646;BME280;5371;49.782;9.932;2023-03-22T11:53:12;99126.19;;;19.08;49.00
10646;BME280;5371;49.782;9.932;2023-03-22T11:55:41;99130.06;;;19.55;47.82
10646;BME280;5371;49.782;9.932;2023-03-22T11:58:23;99126.25;;;18.90;46.85
10646;BME280;5371;49.782;9.932;2023-03-22T12:00:53;99121.34;;;18.16;49.60
10646;BME280;5371;49.782;9.932;2023-03-22T12:03:23;99118.94;;;18.48;48.91
10646;BME280;5371;49.782;9.932;2023-03-22T12:05:52;99113.69;;;18.66;49.06
10646;BME280;5371;49.782;9.932;2023-03-22T12:08:26;99114.88;;;18.72;48.52
10646;BME280;5371;49.782;9.932;2023-03-22T12:10:57;99108.75;;;18.53;49.32
10646;BME280;5371;49.782;9.932;2023-03-22T12:13:34;99124.13;;;18.32;48.62
10646;BME280;5371;49.782;9.932;2023-03-22T12:16:08;99115.28;;;18.23;49.35
10646;BME280;5371;49.782;9.932;2023-03-22T12:18:40;99103.09;;;18.30;49.57
10646;BME280;5371;49.782;9.932;2023-03-22T12:21:11;99106.34;;;18.42;49.07
10646;BME280;5371;49.782;9.932;2023-03-22T12:23:38;99103.91;;;18.49;48.64
10646;BME280;5371;49.782;9.932;2023-03-22T12:26:07;99102.66;;;18.79;48.05
10646;BME280;5371;49.782;9.932;2023-03-22T12:28:40;99096.03;;;19.00;47.08
10646;BME280;5371;49.782;9.932;2023-03-22T12:31:14;99096.13;;;19.25;46.12
10646;BME280;5371;49.782;9.932;2023-03-22T12:33:47;99095.06;;;19.10;46.25
10646;BME280;5371;49.782;9.932;2023-03-22T12:36:16;99092.47;;;19.18;46.30
10646;BME280;5371;49.782;9.932;2023-03-22T12:38:47;99102.38;;;19.16;46.15
10646;BME280;5371;49.782;9.932;2023-03-22T12:41:20;99086.22;;;19.27;46.54
10646;BME280;5371;49.782;9.932;2023-03-22T12:43:53;99085.63;;;19.49;46.10
10646;BME280;5371;49.782;9.932;2023-03-22T12:46:25;59859.25;;;-142.70;100.00
10646;BME280;5371;49.782;9.932;2023-03-22T12:48:56;59859.25;;;-142.70;100.00
10646;BME280;5371;49.782;9.932;2023-03-22T12:51:26;59859.25;;;-142.70;100.00
10646;BME280;5371;49.782;9.932;2023-03-22T12:53:55;59859.25;;;-142.70;100.00
10646;BME280;5371;49.782;9.932;2023-03-22T12:56:25;59859.25;;;-142.70;100.00
10646;BME280;5371;49.782;9.932;2023-03-22T12:58:55;59859.25;;;-142.70;100.00
10646;BME280;5371;49.782;9.932;2023-03-22T13:01:30;59859.25;;;-142.70;100.00
10646;BME280;5371;49.782;9.932;2023-03-22T13:04:25;59859.25;;;-142.70;100.00
10646;BME280;5371;49.782;9.932;2023-03-22T13:07:07;59859.25;;;-142.70;100.00
10646;BME280;5371;49.782;9.932;2023-03-22T13:09:38;59859.25;;;-142.70;100.00
10646;BME280;5371;49.782;9.932;2023-03-22T13:12:34;59859.25;;;-142.70;100.00
10646;BME280;5371;49.782;9.932;2023-03-22T13:15:29;59859.25;;;-142.70;100.00
10646;BME280;5371;49.782;9.932;2023-03-22T13:17:56;59859.25;;;-142.70;100.00
10646;BME280;5371;49.782;9.932;2023-03-22T13:20:27;59859.25;;;-142.70;100.00
10646;BME280;5371;49.782;9.932;2023-03-22T13:23:08;59859.25;;;-142.70;100.00
10646;BME280;5371;49.782;9.932;2023-03-22T13:25:37;59859.25;;;-142.70;100.00